Stations météo

réclame
Mon MeteoGroup
St.Catherine`s Point, Grande-Bretagne (3866): Température de l'air & dewpoint: 15.09.2018 09:00:00 - 21.09.2018 09:00:00 (BST)St.Catherine`s Point, Grande-Bretagne (3866): Vitesse du vent & gusts: 15.09.2018 09:00:00 - 21.09.2018 09:00:00 (BST)St.Catherine`s Point, Grande-Bretagne (3866): Direction du vent: 15.09.2018 09:00:00 - 21.09.2018 09:00:00 (BST)St.Catherine`s Point, Grande-Bretagne (3866): reduced air pressure: 15.09.2018 09:00:00 - 21.09.2018 09:00:00 (BST)St.Catherine`s Point, Grande-Bretagne (3866): Quantités de précipitations: 15.09.2018 09:00:00 - 21.09.2018 09:00:00 (BST)
Date & Time tt [°C] td [°C] ff [km/h] ff [knt] fx [km/h] fx [knt] dd ppp [hPa] rr [mm]
21.09.2018 09:00:00 - - - - - - - - 0,0
21.09.2018 08:00:00 12,7 8,4 42 23 57 31 W 1008,4 0,0
21.09.2018 07:00:00 12,3 7,9 41 22 63 34 W 1006,9 0,0
21.09.2018 06:00:00 13,2 8,4 44 24 67 36 W 1005,2 0,0
21.09.2018 05:00:00 14,4 10,0 46 25 70 38 W 1003,5 0,0
21.09.2018 04:00:00 15,6 11,1 54 29 78 42 W 1002,0 0,0
21.09.2018 03:00:00 15,9 11,0 54 29 76 41 W 1001,4 0,0
21.09.2018 02:00:00 15,2 14,1 55 30 76 41 W 1000,4 3,4
21.09.2018 01:00:00 18,2 16,6 48 26 78 42 SW 1000,4 0,4
21.09.2018 00:00:00 18,4 16,3 42 23 61 33 SSW 1000,7 0,0
20.09.2018 23:00:00 18,8 16,4 39 21 59 32 SW 1003,2 0,0
20.09.2018 22:00:00 18,9 16,3 37 20 54 29 SW 1004,3 0,0
20.09.2018 21:00:00 18,7 16,1 29 16 50 27 SW 1005,6 0,0
20.09.2018 20:00:00 18,9 16,0 31 17 - - SW 1006,5 0,0
20.09.2018 19:00:00 18,7 16,1 28 15 - - SW 1007,4 0,0
20.09.2018 18:00:00 18,9 16,1 29 16 - - SW 1008,6 0,0
20.09.2018 17:00:00 18,8 16,3 29 16 - - WSW 1009,8 0,0
20.09.2018 16:00:00 19,0 16,4 29 16 - - SW 1010,6 0,0
20.09.2018 15:00:00 18,7 16,0 28 15 46 25 SW 1011,3 0,0
20.09.2018 14:00:00 18,9 15,7 31 17 46 25 SW 1012,1 0,0
20.09.2018 13:00:00 18,4 15,7 31 17 48 26 SW 1012,5 0,0
20.09.2018 12:00:00 18,3 15,6 34 18 46 25 SW 1013,1 0,0
20.09.2018 11:00:00 17,9 15,7 34 18 54 29 SW 1013,5 0,0
20.09.2018 10:00:00 18,0 16,0 39 21 52 28 WSW 1013,5 0,0
20.09.2018 09:00:00 17,8 16,0 39 21 54 29 WSW 1013,5 0,0
20.09.2018 08:00:00 17,7 15,9 37 20 52 28 WSW 1013,6 0,0
20.09.2018 07:00:00 17,6 15,9 39 21 54 29 WSW 1013,7 0,0
20.09.2018 06:00:00 17,5 15,8 42 23 55 30 WSW 1013,7 0,0
20.09.2018 05:00:00 17,7 16,1 39 21 54 29 WSW 1013,8 0,0
20.09.2018 04:00:00 17,7 15,9 35 19 55 30 WSW 1014,1 0,0
20.09.2018 03:00:00 17,5 15,8 41 22 57 31 WSW 1014,5 0,0
20.09.2018 02:00:00 17,6 15,8 37 20 50 27 WSW 1014,6 0,0
20.09.2018 01:00:00 17,6 16,3 34 18 - - WSW 1014,9 0,0
20.09.2018 00:00:00 17,7 16,4 31 17 - - WSW 1015,1 0,0
19.09.2018 23:00:00 17,8 16,3 35 19 - - WSW 1015,6 0,0
19.09.2018 22:00:00 17,9 16,3 34 18 46 25 WSW 1015,8 0,0
19.09.2018 21:00:00 17,8 16,3 41 22 52 28 WSW 1015,7 0,0
19.09.2018 20:00:00 17,7 16,3 44 24 55 30 WSW 1015,4 0,0
19.09.2018 19:00:00 17,9 16,4 44 24 59 32 WSW 1015,1 0,0
19.09.2018 18:00:00 18,3 16,5 48 26 61 33 WSW 1014,9 0,0
19.09.2018 17:00:00 18,6 16,5 50 27 61 33 WSW 1014,6 0,0
19.09.2018 16:00:00 18,9 16,6 46 25 63 34 WSW 1014,6 0,0
19.09.2018 15:00:00 18,8 16,5 48 26 65 35 WSW 1014,5 0,0
19.09.2018 14:00:00 19,0 16,6 46 25 61 33 WSW 1014,4 0,0
19.09.2018 13:00:00 18,5 16,5 46 25 61 33 WSW 1014,2 0,2
19.09.2018 12:00:00 18,2 16,7 41 22 54 29 SW 1013,9 0,0
19.09.2018 11:00:00 18,3 16,5 39 21 54 29 SW 1013,7 0,0
19.09.2018 10:00:00 18,1 16,5 37 20 54 29 SW 1013,8 0,0
19.09.2018 09:00:00 17,9 16,6 35 19 54 29 SW 1013,4 0,6
19.09.2018 08:00:00 18,1 16,3 34 18 46 25 SW 1013,3 0,0
19.09.2018 07:00:00 18,0 16,2 34 18 48 26 SW 1013,0 0,0
19.09.2018 06:00:00 17,9 16,3 34 18 46 25 WSW 1012,8 0,0
19.09.2018 05:00:00 17,9 16,3 35 19 50 27 WSW 1012,8 0,0
19.09.2018 04:00:00 18,0 16,2 35 19 50 27 WSW 1013,0 0,0
19.09.2018 03:00:00 18,2 15,8 35 19 48 26 WSW 1013,2 0,0
19.09.2018 02:00:00 18,4 15,5 31 17 - - WSW 1013,4 0,0
19.09.2018 01:00:00 18,4 15,5 34 18 - - WSW 1013,8 0,0
19.09.2018 00:00:00 18,2 15,6 26 14 - - SW 1013,7 0,0
18.09.2018 23:00:00 18,4 15,5 29 16 - - WSW 1013,6 0,0
18.09.2018 22:00:00 18,3 15,7 24 13 - - WSW 1013,7 0,0
18.09.2018 21:00:00 18,2 15,5 22 12 - - SW 1013,8 0,0
18.09.2018 20:00:00 18,0 15,6 24 13 - - WSW 1013,6 0,0
18.09.2018 19:00:00 18,0 15,4 28 15 - - WSW 1013,3 0,0
18.09.2018 18:00:00 18,2 15,6 34 18 48 26 WSW 1013,1 0,0
18.09.2018 17:00:00 18,3 15,8 39 21 52 28 WSW 1013,1 0,0
18.09.2018 16:00:00 18,3 16,1 39 21 54 29 WSW 1013,0 0,0
18.09.2018 15:00:00 18,6 15,6 41 22 54 29 WSW 1012,8 0,0
18.09.2018 14:00:00 18,5 15,6 39 21 55 30 WSW 1012,5 0,0
18.09.2018 13:00:00 18,7 15,2 41 22 50 27 W 1012,0 0,0
18.09.2018 12:00:00 18,9 15,0 39 21 59 32 W 1011,4 0,0
18.09.2018 11:00:00 17,9 14,5 44 24 68 37 W 1010,9 0,0
18.09.2018 10:00:00 17,6 14,4 46 25 67 36 WSW 1009,6 0,0
18.09.2018 09:00:00 17,8 14,2 54 29 70 38 W 1008,6 0,0
18.09.2018 08:00:00 17,6 14,9 54 29 68 37 WSW 1007,9 0,0
18.09.2018 07:00:00 17,7 15,2 48 26 72 39 WSW 1007,3 0,0
18.09.2018 06:00:00 17,9 15,6 48 26 67 36 WSW 1006,8 0,0
18.09.2018 05:00:00 18,0 16,1 48 26 68 37 WSW 1006,9 0,0
18.09.2018 04:00:00 18,6 16,6 29 16 - - SW 1006,7 0,0
18.09.2018 03:00:00 18,6 16,5 28 15 - - SW 1007,1 0,0
18.09.2018 02:00:00 18,4 16,5 26 14 - - SW 1007,4 0,0
18.09.2018 01:00:00 18,5 16,0 21 11 - - WSW 1007,7 0,0
18.09.2018 00:00:00 19,6 14,9 24 13 - - SW 1007,9 0,0
17.09.2018 23:00:00 19,0 16,2 8 4 - - S 1008,0 0,0
17.09.2018 22:00:00 17,5 15,1 11 6 - - ENE 1008,3 0,0
17.09.2018 21:00:00 18,1 14,0 18 10 - - ENE 1008,9 0,0
17.09.2018 20:00:00 17,8 13,4 18 10 - - ENE 1009,4 0,0
17.09.2018 19:00:00 18,5 12,9 18 10 - - ENE 1009,8 0,0
17.09.2018 18:00:00 19,6 15,1 16 9 - - E 1010,8 0,0
17.09.2018 17:00:00 20,6 15,5 15 8 - - E 1011,7 0,0
17.09.2018 16:00:00 20,5 15,5 13 7 - - ESE 1012,6 0,0
17.09.2018 15:00:00 20,2 15,3 8 4 - - SSE 1013,7 0,0
17.09.2018 14:00:00 19,6 14,8 9 5 - - SSE 1014,5 0,0
17.09.2018 13:00:00 20,7 16,7 15 8 - - SE 1015,0 0,0
17.09.2018 12:00:00 19,5 16,2 15 8 - - SE 1016,0 0,0
17.09.2018 11:00:00 18,7 16,2 9 5 - - SSE 1016,7 0,0
17.09.2018 10:00:00 19,4 16,6 8 4 - - S 1016,7 0,0
17.09.2018 09:00:00 18,4 16,4 8 4 - - S 1016,8 0,0
17.09.2018 08:00:00 17,5 16,3 9 5 - - S 1016,9 0,0
17.09.2018 07:00:00 17,4 16,1 15 8 - - SW 1017,2 0,0
17.09.2018 06:00:00 17,6 16,3 16 9 - - WSW 1017,4 0,0
17.09.2018 05:00:00 17,6 16,4 18 10 - - WSW 1017,3 0,0
17.09.2018 04:00:00 17,6 16,4 16 9 - - SW 1017,7 0,0
17.09.2018 03:00:00 17,5 16,3 18 10 - - SW 1017,8 0,0
17.09.2018 02:00:00 17,5 16,4 21 11 - - WSW 1017,9 0,0
17.09.2018 01:00:00 17,5 16,2 24 13 - - WSW 1018,6 0,0
17.09.2018 00:00:00 17,5 16,2 22 12 - - WSW 1018,9 0,0
16.09.2018 23:00:00 17,6 16,3 26 14 - - WSW 1019,1 0,0
16.09.2018 22:00:00 17,5 16,1 24 13 - - WSW 1019,0 0,0
16.09.2018 21:00:00 17,4 15,9 22 12 - - WSW 1019,0 0,0
16.09.2018 20:00:00 17,2 15,4 21 11 - - WSW 1018,6 0,0
16.09.2018 19:00:00 17,5 15,2 22 12 - - WSW 1018,7 0,0
16.09.2018 18:00:00 18,0 14,6 24 13 - - WSW 1018,7 0,0
16.09.2018 17:00:00 18,5 14,0 26 14 - - WSW 1018,3 0,0
16.09.2018 16:00:00 18,9 12,9 29 16 - - WSW 1018,6 0,0
16.09.2018 15:00:00 18,8 13,7 26 14 - - WSW 1018,9 0,0
16.09.2018 14:00:00 18,7 14,1 24 13 - - WSW 1019,0 0,0
16.09.2018 13:00:00 18,0 14,6 22 12 - - SW 1019,2 0,0
16.09.2018 12:00:00 17,9 14,9 22 12 - - WSW 1019,6 0,0
16.09.2018 11:00:00 17,9 14,7 21 11 - - WSW 1019,9 0,0
16.09.2018 10:00:00 17,8 14,6 18 10 - - SW 1019,6 0,0
16.09.2018 09:00:00 17,8 14,1 21 11 - - SW 1019,2 0,0
16.09.2018 08:00:00 17,7 13,3 15 8 - - SW 1019,2 0,0
16.09.2018 07:00:00 17,4 14,2 16 9 - - SW 1019,4 0,0
16.09.2018 06:00:00 17,3 14,2 18 10 - - S 1019,3 0,0
16.09.2018 05:00:00 17,2 14,5 13 7 - - S 1019,7 0,0
16.09.2018 04:00:00 17,0 13,8 11 6 - - SSE 1020,4 0,0
16.09.2018 03:00:00 16,5 13,0 9 5 - - S 1021,0 0,0
16.09.2018 02:00:00 16,5 13,1 11 6 - - SSW 1021,9 0,0
16.09.2018 01:00:00 16,4 12,8 11 6 - - S 1022,2 0,0
16.09.2018 00:00:00 16,3 12,4 11 6 - - S 1022,9 0,0
15.09.2018 23:00:00 16,1 12,2 11 6 - - S 1023,1 0,0
15.09.2018 22:00:00 16,3 11,0 9 5 - - WSW 1023,6 0,0
15.09.2018 21:00:00 16,2 12,2 16 9 - - WSW 1024,0 0,0
15.09.2018 20:00:00 16,0 12,4 16 9 - - WSW 1023,7 0,0
15.09.2018 19:00:00 16,2 11,8 18 10 - - WSW 1023,6 0,0
15.09.2018 18:00:00 16,7 12,1 21 11 - - WSW 1023,7 0,0
15.09.2018 17:00:00 17,1 12,5 22 12 - - WSW 1024,1 0,0
15.09.2018 16:00:00 17,7 13,2 24 13 - - W 1024,6 0,0
15.09.2018 15:00:00 17,6 12,3 24 13 - - WSW 1024,8 0,0
15.09.2018 14:00:00 18,3 12,8 21 11 - - WSW 1024,9 0,0
15.09.2018 13:00:00 18,2 12,9 22 12 - - W 1025,1 0,0
15.09.2018 12:00:00 17,9 12,5 18 10 - - W 1025,4 0,0
15.09.2018 11:00:00 18,0 12,3 18 10 - - W 1025,4 0,0
15.09.2018 10:00:00 16,7 12,0 18 10 - - W 1025,2 0,0
15.09.2018 09:00:00 16,0 11,5 18 10 - - WNW 1025,0 0,0

tt = Température de l'air
td = dewpoint
ff = Vitesse du vent
fx = gusts
dd = Direction du vent
ppp = reduced air pressure
rr = Quantités de précipitations

stations d'obs. à proximité